Flight Track Log - Related Links

Times and Time Zones

All times are in EDT time to prevent confusion due to time zone crossing. See the N273SK flight status page for this flight to view local times or setup timezone preferences in your user account.

Time Position Orientation Groundspeed Altitude Reporting Facility
EDT Latitude Longitude Course Direction KTS MPH feet Rate Location/Type
Mon 03:45:33 PM 40.5353 -80.1297 300° West 194 223 4,900  Level Cleveland Center
Mon 03:46:33 PM 40.5711 -80.2114 300° West 123 142 7,200 2,250 Climbing Cleveland Center
Mon 03:47:33 PM 40.5858 -80.3097 281° West 175 201 9,400 1,850 Climbing Cleveland Center
Mon 03:48:33 PM 40.6028 -80.4217 281° West 250 288 10,900 1,200 Climbing Cleveland Center
Mon 03:49:33 PM 40.6175 -80.5422 279° West 317 365 11,800 950 Climbing Cleveland Center
Mon 03:50:33 PM 40.6361 -80.6733 281° West 354 407 12,800 850 Climbing Cleveland Center
Mon 03:51:33 PM 40.6547 -80.7856 282° West 360 414 13,500 1,000 Climbing Cleveland Center
Mon 03:52:33 PM 40.6733 -80.9225 280° West 372 428 14,800 1,388 Climbing Cleveland Center
Mon 03:53:34 PM 40.6956 -81.0706 281° West 372 428 16,300 1,041 Climbing Cleveland Center
Mon 03:54:34 PM 40.7494 -81.1697 306° West 366 421 16,900 303 Climbing Cleveland Center
Mon 03:55:33 PM 40.8175 -81.2800 309° West 384 442 16,900  Level Cleveland Center
Mon 03:56:34 PM 40.8878 -81.3933 309° West 390 449 16,900 298 Level Cleveland Center
Mon 03:57:34 PM 40.9578 -81.5042 310° West 395 455 17,500 555 Climbing Cleveland Center
Mon 03:58:33 PM 41.0236 -81.6125 309° West 395 455 18,000 250 Climbing Cleveland Center
Mon 03:59:34 PM 41.0972 -81.7375 308° West 400 460 18,000  Level Cleveland Center
Mon 04:00:34 PM 41.1608 -81.8353 311° West 400 460 18,000  Level Cleveland Center
Mon 04:01:33 PM 41.2306 -81.9497 309° West 400 460 18,000  Level Cleveland Center
Mon 04:02:34 PM 41.3000 -82.0644 309° West 400 460 18,000  Level Cleveland Center
Mon 04:03:34 PM 41.3692 -82.1794 309° West 406 467 18,000 -353 Level Cleveland Center
Mon 04:04:33 PM 41.4364 -82.2947 308° West 401 461 17,300 -1,150 Descending Cleveland Center
Mon 04:05:34 PM 41.5036 -82.4075 309° West 395 455 15,700 -1,600 Descending Cleveland Center
Mon 04:06:33 PM 41.5744 -82.5233 309° West 379 436 14,100 -1,474 Descending Cleveland Center
Mon 04:07:28 PM 41.6333 -82.6222 309° West 371 427 12,900 -1,086 Descending Cleveland Center
Mon 04:08:29 PM 41.6978 -82.7356 307° West 365 420 12,000 -443 Descending Cleveland Center
Mon 04:09:30 PM 41.7711 -82.8356 315° West 371 427 12,000  Level Cleveland Center
Mon 04:10:33 PM 41.8483 -82.9303 318° Northwest 361 415 12,000  Level Cleveland Center
Mon 04:11:33 PM 41.9194 -83.0167 318° Northwest 333 383 12,000  Level Cleveland Center
Mon 04:12:34 PM 41.9783 -83.0886 318° Northwest 325 374 12,000  Level Cleveland Center
Mon 04:13:29 PM 42.0272 -83.1464 319° Northwest 237 273 12,000  Level Cleveland Center
Mon 04:14:34 PM 42.0781 -83.2072 318° Northwest 247 284 12,000 -387 Level Cleveland Center
Mon 04:15:33 PM 42.1378 -83.2378 339° North 228 262 11,200 -1,104 Descending Cleveland Center
Mon 04:16:39 PM 42.2053 -83.1986 23° Northeast 237 273 9,700 -1,276 Descending Cleveland Center
Mon 04:17:40 PM 42.2628 -83.1475 33° Northeast 229 264 8,500 -836 Descending Cleveland Center
Mon 04:18:41 PM 42.3158 -83.1019 32° Northeast 233 268 8,000 -244 Descending Cleveland Center
Mon 04:19:43 PM 42.3792 -83.0625 25° Northeast 231 266 8,000 -390 Level Cleveland Center
Mon 04:20:44 PM 42.4383 -83.0281 23° Northeast 228 262 7,200 -844 Descending Cleveland Center
Mon 04:21:51 PM 42.4939 -83.0611 336° Northwest 210 242 6,200 -590 Descending Cleveland Center
Mon 04:22:46 PM 42.4992 -83.1150 278° West 188 216 6,000 -148 Descending Cleveland Center
Mon 04:23:53 PM 42.4542 -83.1611 217° Southwest 185 213 5,900 -90 Descending Cleveland Center

Login

Don't have an account? Register now (free) for customized features, flight alerts, and more!